createdAt,value
2022-10-06T00:01:12.408Z,101316.48
2022-10-06T00:03:40.109Z,101319.00
2022-10-06T00:06:08.519Z,101320.23
2022-10-06T00:08:38.514Z,101321.33
2022-10-06T00:11:07.504Z,101326.27
2022-10-06T00:13:35.580Z,101330.95
2022-10-06T00:16:04.511Z,101330.45
2022-10-06T00:18:31.615Z,101327.56
2022-10-06T00:21:01.518Z,101328.86
2022-10-06T00:23:29.849Z,101333.55
2022-10-06T00:25:57.053Z,101336.88
2022-10-06T00:28:23.883Z,101341.38
2022-10-06T00:30:53.517Z,101352.27
2022-10-06T00:33:20.951Z,101351.84
2022-10-06T00:35:48.188Z,101357.28
2022-10-06T00:38:17.306Z,101356.80
2022-10-06T00:40:52.976Z,101364.02
2022-10-06T00:43:40.975Z,101361.55
2022-10-06T00:46:17.005Z,101361.38
2022-10-06T00:48:47.709Z,101368.05
2022-10-06T00:51:15.251Z,101365.05
2022-10-06T00:53:43.006Z,101365.61
2022-10-06T00:56:10.235Z,101367.96
2022-10-06T00:58:38.264Z,101371.30
2022-10-06T01:01:05.647Z,101371.20
2022-10-06T01:03:39.329Z,101372.20
2022-10-06T01:06:06.738Z,101377.39
2022-10-06T01:08:34.914Z,101373.98
2022-10-06T01:11:02.273Z,101372.23
2022-10-06T01:13:30.558Z,101370.51
2022-10-06T01:16:11.680Z,101371.05
2022-10-06T01:18:42.613Z,101372.80
2022-10-06T01:21:23.965Z,101374.53
2022-10-06T01:23:50.986Z,101368.37
2022-10-06T01:26:20.505Z,101373.52
2022-10-06T01:28:48.529Z,101379.31
2022-10-06T01:31:15.998Z,101375.54
2022-10-06T01:33:42.755Z,101380.86
2022-10-06T01:36:09.560Z,101389.42
2022-10-06T01:38:36.756Z,101392.45
2022-10-06T01:41:03.805Z,101392.15
2022-10-06T01:43:30.503Z,101397.68
2022-10-06T01:45:58.794Z,101393.84
2022-10-06T01:48:27.289Z,101393.18
2022-10-06T01:50:55.175Z,101391.08
2022-10-06T01:53:22.713Z,101391.23
2022-10-06T01:55:49.331Z,101390.92
2022-10-06T01:58:16.117Z,101390.90
2022-10-06T02:00:42.867Z,101385.04
2022-10-06T02:03:09.579Z,101389.48
2022-10-06T02:05:36.425Z,101389.17
2022-10-06T02:08:03.804Z,101392.39
2022-10-06T02:10:30.975Z,101394.59
2022-10-06T02:12:57.622Z,101395.23
2022-10-06T02:15:26.908Z,101398.36
2022-10-06T02:17:55.719Z,101401.67
2022-10-06T02:20:22.427Z,101400.30
2022-10-06T02:22:49.474Z,101404.84
2022-10-06T02:25:17.253Z,101398.04
2022-10-06T02:27:44.373Z,101401.88
2022-10-06T02:30:14.521Z,101408.45
2022-10-06T02:32:42.782Z,101411.52
2022-10-06T02:35:12.855Z,101414.30
2022-10-06T02:37:41.541Z,101417.17
2022-10-06T02:40:10.064Z,101416.41
2022-10-06T02:42:38.113Z,101415.13
2022-10-06T02:45:06.975Z,101419.78
2022-10-06T02:47:36.835Z,101427.94
2022-10-06T02:50:07.408Z,101422.63
2022-10-06T02:52:37.985Z,101431.95
2022-10-06T02:55:08.007Z,101436.16
2022-10-06T02:57:34.816Z,101435.48
2022-10-06T03:00:01.457Z,101427.41
2022-10-06T03:02:31.006Z,101439.19
2022-10-06T03:04:57.881Z,101444.52
2022-10-06T03:07:24.540Z,101441.17
2022-10-06T03:09:51.203Z,101439.52
2022-10-06T03:12:18.531Z,101441.31
2022-10-06T03:14:45.203Z,101448.79
2022-10-06T03:17:12.006Z,101451.98
2022-10-06T03:19:38.773Z,101457.11
2022-10-06T03:22:07.075Z,101459.84
2022-10-06T03:24:33.747Z,101468.52
2022-10-06T03:27:00.375Z,101470.21
2022-10-06T03:29:28.572Z,101473.94
2022-10-06T03:31:55.215Z,101484.55
2022-10-06T03:34:21.859Z,101493.00
2022-10-06T03:36:48.514Z,101500.41
2022-10-06T03:39:15.130Z,101505.13
2022-10-06T03:41:41.816Z,101514.31
2022-10-06T03:44:08.800Z,101526.69
2022-10-06T03:46:36.246Z,101531.80
2022-10-06T03:49:04.283Z,101542.95
2022-10-06T03:51:38.896Z,101550.23
2022-10-06T03:54:07.824Z,101560.81
2022-10-06T03:56:37.792Z,101571.64
2022-10-06T03:59:08.800Z,101576.27
2022-10-06T04:01:45.313Z,101578.27
2022-10-06T04:04:13.587Z,101583.81
2022-10-06T04:06:44.380Z,101586.86
2022-10-06T04:09:15.534Z,101593.83
2022-10-06T04:11:44.903Z,101601.29
2022-10-06T04:14:15.503Z,101607.19
2022-10-06T04:16:49.716Z,101610.09
2022-10-06T04:19:17.888Z,101615.13
2022-10-06T04:21:47.686Z,101619.73
2022-10-06T04:24:17.060Z,101627.51
2022-10-06T04:26:46.545Z,101631.92
2022-10-06T04:29:14.931Z,101633.11
2022-10-06T04:31:42.739Z,101634.76
2022-10-06T04:34:15.212Z,101641.36
2022-10-06T04:36:43.417Z,101649.17
2022-10-06T04:39:12.799Z,101653.68
2022-10-06T04:41:42.205Z,101647.00
2022-10-06T04:44:09.123Z,101651.11
2022-10-06T04:46:44.997Z,101650.55
2022-10-06T04:49:18.929Z,101645.95
2022-10-06T04:51:50.103Z,101657.02
2022-10-06T04:54:18.644Z,101662.82
2022-10-06T04:56:45.495Z,101670.25
2022-10-06T04:59:12.141Z,101665.83
2022-10-06T05:01:38.993Z,101664.84
2022-10-06T05:04:06.674Z,101670.96
2022-10-06T05:06:35.763Z,101682.19
2022-10-06T05:09:07.120Z,101687.11
2022-10-06T05:11:33.873Z,101703.63
2022-10-06T05:14:01.156Z,101713.67
2022-10-06T05:16:30.993Z,101721.04
2022-10-06T05:18:58.515Z,101729.82
2022-10-06T05:21:31.319Z,101730.30
2022-10-06T05:23:58.761Z,101731.74
2022-10-06T05:26:29.081Z,101735.19
2022-10-06T05:28:55.945Z,101741.94
2022-10-06T05:31:29.289Z,101750.14
2022-10-06T05:33:58.236Z,101748.98
2022-10-06T05:36:31.826Z,101752.78
2022-10-06T05:38:59.182Z,101764.38
2022-10-06T05:41:34.198Z,101770.05
2022-10-06T05:44:01.049Z,101778.16
2022-10-06T05:46:30.807Z,101786.58
2022-10-06T05:49:12.735Z,101798.67
2022-10-06T05:51:40.483Z,101801.28
2022-10-06T05:54:07.750Z,101806.06
2022-10-06T05:56:37.433Z,101817.71
2022-10-06T05:59:05.627Z,101827.97
2022-10-06T06:01:41.640Z,101837.06
2022-10-06T06:04:12.363Z,101843.52
2022-10-06T06:06:43.256Z,101852.20
2022-10-06T06:09:13.868Z,101859.06
2022-10-06T06:11:44.626Z,101860.79
2022-10-06T06:14:40.707Z,101873.08
2022-10-06T06:17:07.652Z,101881.55
2022-10-06T06:19:34.320Z,101898.27
2022-10-06T06:22:00.918Z,101899.73
2022-10-06T06:24:27.498Z,101902.38
2022-10-06T06:26:54.097Z,101906.70
2022-10-06T06:29:20.768Z,101914.06
2022-10-06T06:31:48.556Z,101922.61
2022-10-06T06:34:15.285Z,101925.41
2022-10-06T06:36:46.793Z,101923.65
2022-10-06T06:39:16.508Z,101930.85
2022-10-06T06:41:47.009Z,101936.61
2022-10-06T06:44:14.268Z,101949.77
2022-10-06T06:46:44.725Z,101955.75
2022-10-06T06:49:12.280Z,101965.49
2022-10-06T06:51:45.062Z,101971.59
2022-10-06T06:54:12.814Z,101973.68
2022-10-06T06:56:39.462Z,101979.95
2022-10-06T06:59:09.064Z,101985.83
2022-10-06T07:01:36.897Z,101994.55
2022-10-06T07:04:05.283Z,101997.50
2022-10-06T07:06:32.881Z,102002.56
2022-10-06T07:09:00.520Z,102010.77
2022-10-06T07:11:33.640Z,102011.61
2022-10-06T07:14:07.607Z,102019.91
2022-10-06T07:16:53.089Z,102025.86
2022-10-06T07:19:57.112Z,102028.11
2022-10-06T07:22:46.197Z,102033.90
2022-10-06T07:25:33.058Z,102034.85
2022-10-06T07:27:59.694Z,102039.42
2022-10-06T07:30:29.215Z,102044.77
2022-10-06T07:32:55.981Z,102055.83
2022-10-06T07:35:25.054Z,102059.60
2022-10-06T07:37:57.953Z,102066.16
2022-10-06T07:40:24.967Z,102069.83
2022-10-06T07:42:52.045Z,102078.80
2022-10-06T07:45:38.674Z,102076.82
2022-10-06T07:48:10.279Z,102084.77
2022-10-06T07:50:41.986Z,102090.98
2022-10-06T07:53:09.262Z,102093.73
2022-10-06T07:55:41.648Z,102090.80
2022-10-06T07:58:20.300Z,102092.94
2022-10-06T08:00:48.811Z,102098.23
2022-10-06T08:03:18.234Z,102103.35
2022-10-06T08:05:56.635Z,102103.34
2022-10-06T08:08:23.301Z,102112.21
2022-10-06T08:10:56.035Z,102111.16
2022-10-06T08:13:24.590Z,102112.73
2022-10-06T08:15:52.449Z,102119.64
2022-10-06T08:18:34.110Z,102126.15
2022-10-06T08:21:16.118Z,102129.00
2022-10-06T08:23:44.786Z,102136.94
2022-10-06T08:26:14.301Z,102135.16
2022-10-06T08:28:46.289Z,102136.31
2022-10-06T08:31:15.669Z,102138.40
2022-10-06T08:33:44.730Z,102147.48
2022-10-06T08:36:16.654Z,102152.83
2022-10-06T08:38:45.527Z,102154.90
2022-10-06T08:41:48.433Z,102155.41
2022-10-06T08:44:16.599Z,102157.52
2022-10-06T08:47:11.713Z,102159.18
2022-10-06T08:49:45.939Z,102165.39
2022-10-06T08:53:14.124Z,102167.36
2022-10-06T08:55:51.811Z,102169.75
2022-10-06T08:58:46.198Z,102179.30
2022-10-06T09:01:19.598Z,102185.79
2022-10-06T09:03:49.017Z,102186.17
2022-10-06T09:06:45.373Z,102187.50
2022-10-06T09:09:25.345Z,102192.84
2022-10-06T09:12:21.435Z,102202.08
2022-10-06T09:15:04.546Z,102207.16
2022-10-06T09:17:43.384Z,102212.44
2022-10-06T09:20:34.125Z,102217.27
2022-10-06T09:23:04.793Z,102224.93
2022-10-06T09:25:32.149Z,102221.23
2022-10-06T09:28:01.448Z,102225.94
2022-10-06T09:30:28.228Z,102228.86
2022-10-06T09:33:00.539Z,102230.69
2022-10-06T09:35:31.499Z,102230.22
2022-10-06T09:38:08.519Z,102240.98
2022-10-06T09:40:51.287Z,102248.55
2022-10-06T09:43:25.874Z,102243.38
2022-10-06T09:45:58.286Z,102249.52
2022-10-06T09:48:27.010Z,102250.27
2022-10-06T09:51:14.715Z,102251.58
2022-10-06T09:53:43.469Z,102248.83
2022-10-06T09:56:20.153Z,102248.98
2022-10-06T09:58:57.511Z,102243.08
2022-10-06T10:01:28.696Z,102254.00
2022-10-06T10:04:19.414Z,102252.85
2022-10-06T10:06:48.188Z,102250.65
2022-10-06T10:09:22.243Z,102254.06
2022-10-06T10:12:25.092Z,102256.23
2022-10-06T10:14:56.733Z,102258.65
2022-10-06T10:17:44.767Z,102262.57
2022-10-06T10:20:37.558Z,102271.14
2022-10-06T10:23:21.876Z,102274.05
2022-10-06T10:26:04.044Z,102272.10
2022-10-06T10:29:08.459Z,102274.59
2022-10-06T10:32:02.721Z,102268.95
2022-10-06T10:34:59.642Z,102270.31
2022-10-06T10:37:45.675Z,102272.23
2022-10-06T10:40:32.064Z,102278.65
2022-10-06T10:43:32.565Z,102278.88
2022-10-06T10:46:19.208Z,102279.32
2022-10-06T10:49:01.894Z,102279.68
2022-10-06T10:51:49.950Z,102282.89
2022-10-06T10:54:39.562Z,102280.59
2022-10-06T10:57:16.321Z,102277.88
2022-10-06T11:00:00.424Z,102277.39
2022-10-06T11:02:28.746Z,102278.02
2022-10-06T11:05:10.649Z,102283.33
2022-10-06T11:07:49.558Z,102284.52
2022-10-06T11:10:26.883Z,102283.67
2022-10-06T11:13:14.384Z,102291.59
2022-10-06T11:15:53.309Z,102295.51
2022-10-06T11:18:35.280Z,102293.38
2022-10-06T11:21:34.617Z,102289.75
2022-10-06T11:24:13.149Z,102295.31
2022-10-06T11:27:26.666Z,102296.66
2022-10-06T11:30:11.433Z,102300.73
2022-10-06T11:33:11.846Z,102298.14
2022-10-06T11:35:43.203Z,102303.11
2022-10-06T11:38:27.307Z,102306.01
2022-10-06T11:41:22.803Z,102305.23
2022-10-06T11:44:05.486Z,102310.55
2022-10-06T11:46:45.105Z,102314.19
2022-10-06T11:49:30.743Z,102313.44
2022-10-06T11:52:10.264Z,102312.53
2022-10-06T11:54:39.901Z,102319.33
2022-10-06T11:57:30.602Z,102323.38
2022-10-06T12:00:16.026Z,102322.35
2022-10-06T12:02:46.854Z,102317.67
2022-10-06T12:05:54.665Z,102314.13
2022-10-06T12:08:03.151Z,102323.94
2022-10-06T12:10:29.670Z,102321.30
2022-10-06T12:13:39.977Z,102324.40
2022-10-06T12:19:19.333Z,102325.81
2022-10-06T12:22:07.139Z,102324.71
2022-10-06T12:24:54.124Z,102325.73
2022-10-06T12:27:58.766Z,102324.66
2022-10-06T12:30:51.001Z,102320.58
2022-10-06T12:33:33.816Z,102314.27
2022-10-06T12:36:15.311Z,102316.33
2022-10-06T12:39:05.049Z,102321.44
2022-10-06T12:42:02.498Z,102323.10
2022-10-06T12:44:40.391Z,102328.10
2022-10-06T12:47:30.169Z,102328.96
2022-10-06T12:50:25.970Z,102330.82
2022-10-06T12:53:06.163Z,102326.74
2022-10-06T12:55:51.620Z,102327.08
2022-10-06T12:58:32.429Z,102325.92
2022-10-06T13:01:04.359Z,102323.84
2022-10-06T13:03:31.589Z,102330.63
2022-10-06T13:06:07.452Z,102327.52
2022-10-06T13:08:37.674Z,102329.41
2022-10-06T13:11:24.806Z,102327.71
2022-10-06T13:14:08.319Z,102327.27
2022-10-06T13:16:40.913Z,102333.73
2022-10-06T13:19:24.993Z,102330.20
2022-10-06T13:21:51.702Z,102331.48
2022-10-06T13:24:26.355Z,102333.38
2022-10-06T13:26:54.078Z,102329.96
2022-10-06T13:29:26.081Z,102332.41
2022-10-06T13:31:56.757Z,102331.14
2022-10-06T13:34:43.274Z,102332.10
2022-10-06T13:37:15.613Z,102333.95
2022-10-06T13:39:42.550Z,102335.23
2022-10-06T13:42:20.782Z,102333.40
2022-10-06T13:44:57.062Z,102337.23
2022-10-06T13:47:29.693Z,102339.48
2022-10-06T13:50:19.819Z,102338.21
2022-10-06T13:52:48.948Z,102341.78
2022-10-06T13:55:22.309Z,102347.13
2022-10-06T13:58:03.379Z,102345.70
2022-10-06T14:00:50.906Z,102344.33
2022-10-06T14:03:28.434Z,102341.13
2022-10-06T14:06:22.318Z,102345.35
2022-10-06T14:08:57.842Z,102350.89
2022-10-06T14:11:29.804Z,102349.55
2022-10-06T14:14:04.219Z,102350.61
2022-10-06T14:16:31.324Z,102348.39
2022-10-06T14:19:04.553Z,102347.11
2022-10-06T14:21:44.720Z,102352.48
2022-10-06T14:24:18.948Z,102359.80
2022-10-06T14:26:50.558Z,102357.93
2022-10-06T14:29:19.072Z,102364.14
2022-10-06T14:31:47.570Z,102360.75
2022-10-06T14:34:19.027Z,102364.41
2022-10-06T14:36:51.550Z,102370.22
2022-10-06T14:39:19.514Z,102369.23
2022-10-06T14:41:46.496Z,102365.56
2022-10-06T14:44:15.551Z,102367.79
2022-10-06T14:46:48.227Z,102377.40
2022-10-06T14:49:15.853Z,102378.16
2022-10-06T14:51:44.686Z,102376.17
2022-10-06T14:54:12.526Z,102377.89
2022-10-06T14:56:41.350Z,102374.56
2022-10-06T14:59:16.875Z,102374.94
2022-10-06T15:01:44.593Z,102369.21
2022-10-06T15:04:15.340Z,102369.15
2022-10-06T15:07:01.276Z,102372.30
2022-10-06T15:09:30.806Z,102371.14
2022-10-06T15:11:59.888Z,102375.27
2022-10-06T15:14:28.497Z,102374.02
2022-10-06T15:16:59.178Z,102374.58
2022-10-06T15:19:26.662Z,102379.88
2022-10-06T15:21:53.720Z,102381.63
2022-10-06T15:24:20.824Z,102382.67
2022-10-06T15:27:07.203Z,102385.12
2022-10-06T15:29:35.311Z,102382.49
2022-10-06T15:32:03.968Z,102383.80
2022-10-06T15:34:34.333Z,102381.77
2022-10-06T15:37:02.306Z,102386.02
2022-10-06T15:39:34.207Z,102383.88
2022-10-06T15:42:00.969Z,102384.67
2022-10-06T15:44:34.484Z,102387.11
2022-10-06T15:47:04.319Z,102388.77
2022-10-06T15:49:32.753Z,102393.81
2022-10-06T15:52:03.893Z,102393.70
2022-10-06T15:54:38.629Z,102392.19
2022-10-06T15:57:09.993Z,102396.56
2022-10-06T15:59:39.895Z,102400.88
2022-10-06T16:02:14.690Z,102400.08
2022-10-06T16:04:43.472Z,102406.99
2022-10-06T16:07:17.238Z,102403.56
2022-10-06T16:09:47.730Z,102408.19
2022-10-06T16:12:22.889Z,102410.10
2022-10-06T16:14:49.585Z,102414.05
2022-10-06T16:17:17.887Z,102411.89
2022-10-06T16:19:45.518Z,102412.60
2022-10-06T16:22:18.549Z,102421.09
2022-10-06T16:24:45.360Z,102421.85
2022-10-06T16:27:15.565Z,102422.65
2022-10-06T16:29:42.513Z,102426.27
2022-10-06T16:32:09.622Z,102435.09
2022-10-06T16:34:36.438Z,102434.20
2022-10-06T16:37:03.103Z,102439.35
2022-10-06T16:39:29.720Z,102438.73
2022-10-06T16:41:56.415Z,102441.77
2022-10-06T16:44:23.057Z,102440.02
2022-10-06T16:46:49.852Z,102442.33
2022-10-06T16:49:16.603Z,102444.54
2022-10-06T16:51:48.441Z,102447.20
2022-10-06T16:54:19.069Z,102451.23
2022-10-06T16:56:48.956Z,102456.73
2022-10-06T16:59:22.395Z,102455.98
2022-10-06T17:01:50.613Z,102457.86
2022-10-06T17:04:24.301Z,102459.62
2022-10-06T17:06:56.925Z,102465.63
2022-10-06T17:09:27.012Z,102468.14
2022-10-06T17:12:00.260Z,102472.73
2022-10-06T17:14:30.648Z,102475.46
2022-10-06T17:16:59.190Z,102482.16
2022-10-06T17:19:29.235Z,102479.29
2022-10-06T17:21:59.361Z,102480.42
2022-10-06T17:24:28.604Z,102476.16
2022-10-06T17:26:57.511Z,102478.93
2022-10-06T17:29:24.664Z,102481.89
2022-10-06T17:31:58.547Z,102481.76
2022-10-06T17:34:30.732Z,102488.68
2022-10-06T17:37:00.014Z,102489.20
2022-10-06T17:39:26.812Z,102488.48
2022-10-06T17:41:54.114Z,102485.68
2022-10-06T17:44:26.899Z,102489.73
2022-10-06T17:46:58.372Z,102488.92
2022-10-06T17:49:25.706Z,102483.48
2022-10-06T17:51:55.335Z,102485.69
2022-10-06T17:54:25.682Z,102489.04
2022-10-06T17:56:56.970Z,102487.70
2022-10-06T17:59:28.833Z,102492.61
2022-10-06T18:01:58.376Z,102494.18
2022-10-06T18:04:26.529Z,102494.62
2022-10-06T18:06:54.443Z,102496.79
2022-10-06T18:09:22.444Z,102496.40
2022-10-06T18:11:54.825Z,102493.60
2022-10-06T18:14:25.350Z,102492.67
2022-10-06T18:17:01.759Z,102491.70
2022-10-06T18:19:34.846Z,102494.92
2022-10-06T18:22:10.131Z,102494.83
2022-10-06T18:24:37.994Z,102495.36
2022-10-06T18:27:06.439Z,102498.69
2022-10-06T18:29:38.772Z,102498.45
2022-10-06T18:36:12.028Z,102501.48
2022-10-06T18:37:41.233Z,102496.67
2022-10-06T18:40:09.950Z,102502.88
2022-10-06T18:42:39.079Z,102500.40
2022-10-06T18:45:26.562Z,102501.21
2022-10-06T18:48:12.131Z,102504.52
2022-10-06T18:50:39.468Z,102504.77
2022-10-06T18:53:06.168Z,102503.61
2022-10-06T18:55:32.837Z,102502.52
2022-10-06T18:57:59.466Z,102505.57
2022-10-06T19:00:26.307Z,102509.58
2022-10-06T19:02:55.418Z,102511.77
2022-10-06T19:05:23.638Z,102514.82
2022-10-06T19:07:53.919Z,102511.32
2022-10-06T19:10:21.682Z,102512.52
2022-10-06T19:12:48.592Z,102512.95
2022-10-06T19:15:20.278Z,102516.01
2022-10-06T19:17:48.185Z,102521.98
2022-10-06T19:20:14.968Z,102518.55
2022-10-06T19:22:43.409Z,102517.59
2022-10-06T19:25:10.135Z,102513.73
2022-10-06T19:27:36.876Z,102518.81
2022-10-06T19:30:04.778Z,102522.19
2022-10-06T19:32:34.446Z,102519.77
2022-10-06T19:35:01.142Z,102520.39
2022-10-06T19:37:30.666Z,102520.55
2022-10-06T19:39:58.438Z,102527.52
2022-10-06T19:42:44.382Z,102526.44
2022-10-06T19:45:12.292Z,102525.67
2022-10-06T19:47:40.511Z,102529.10
2022-10-06T19:50:12.257Z,102530.96
2022-10-06T19:52:41.169Z,102535.98
2022-10-06T19:55:07.995Z,102535.45
2022-10-06T19:57:34.776Z,102536.24
2022-10-06T20:00:01.702Z,102536.20
2022-10-06T20:02:28.811Z,102539.67
2022-10-06T20:04:56.820Z,102542.52
2022-10-06T20:07:27.468Z,102545.05
2022-10-06T20:09:55.213Z,102551.38
2022-10-06T20:12:25.314Z,102551.82
2022-10-06T20:14:56.078Z,102558.31
2022-10-06T20:17:23.138Z,102557.76
2022-10-06T20:19:53.916Z,102556.89
2022-10-06T20:22:24.348Z,102562.29
2022-10-06T20:24:52.147Z,102559.35
2022-10-06T20:27:18.809Z,102556.53
2022-10-06T20:29:46.069Z,102553.15
2022-10-06T20:32:12.763Z,102555.45
2022-10-06T20:34:40.892Z,102559.16
2022-10-06T20:37:07.559Z,102557.00
2022-10-06T20:39:53.114Z,102558.02
2022-10-06T20:42:21.404Z,102559.42
2022-10-06T20:44:48.820Z,102568.05
2022-10-06T20:47:19.979Z,102565.41
2022-10-06T20:49:46.813Z,102568.95
2022-10-06T20:52:16.939Z,102573.00
2022-10-06T20:54:44.092Z,102570.73
2022-10-06T20:57:10.883Z,102570.84
2022-10-06T20:59:37.953Z,102572.09
2022-10-06T21:02:06.785Z,102576.99
2022-10-06T21:04:34.724Z,102582.25
2022-10-06T21:07:04.019Z,102578.84
2022-10-06T21:09:31.042Z,102570.22
2022-10-06T21:11:57.772Z,102567.48
2022-10-06T21:14:25.315Z,102562.81
2022-10-06T21:16:52.850Z,102561.02
2022-10-06T21:19:20.185Z,102564.44
2022-10-06T21:21:53.400Z,102566.54
2022-10-06T21:24:21.101Z,102564.46
2022-10-06T21:26:48.784Z,102562.88
2022-10-06T21:29:16.141Z,102561.55
2022-10-06T21:31:45.118Z,102562.70
2022-10-06T21:34:15.802Z,102564.13
2022-10-06T21:36:44.281Z,102560.46
2022-10-06T21:39:12.937Z,102556.50
2022-10-06T21:41:40.636Z,102553.67
2022-10-06T21:44:16.712Z,102553.57
2022-10-06T21:46:50.474Z,102555.17
2022-10-06T21:49:21.170Z,102550.11
2022-10-06T21:51:52.387Z,102548.19
2022-10-06T21:54:21.869Z,102544.33
2022-10-06T21:56:49.629Z,102545.77
2022-10-06T21:59:16.324Z,102546.34
2022-10-06T22:01:45.490Z,102547.58
2022-10-06T22:04:14.437Z,102548.67
2022-10-06T22:06:43.668Z,102540.83
2022-10-06T22:09:15.982Z,102542.80
2022-10-06T22:11:43.488Z,102546.17
2022-10-06T22:14:18.168Z,102542.81
2022-10-06T22:16:45.482Z,102539.05
2022-10-06T22:19:14.713Z,102540.66
2022-10-06T22:21:45.446Z,102539.48
2022-10-06T22:24:16.320Z,102536.66
2022-10-06T22:26:45.184Z,102534.31
2022-10-06T22:29:16.692Z,102529.31
2022-10-06T22:31:46.645Z,102536.89
2022-10-06T22:34:18.268Z,102539.86
2022-10-06T22:36:45.173Z,102537.05
2022-10-06T22:39:12.014Z,102527.00
2022-10-06T22:41:38.725Z,102525.11
2022-10-06T22:44:05.467Z,102525.73
2022-10-06T22:46:35.596Z,102528.49
2022-10-06T22:49:04.364Z,102528.61
2022-10-06T22:51:31.756Z,102527.11
2022-10-06T22:54:00.519Z,102527.77
2022-10-06T22:56:30.279Z,102530.02
2022-10-06T22:58:59.726Z,102528.94
2022-10-06T23:01:29.061Z,102524.28
2022-10-06T23:03:56.523Z,102525.01
2022-10-06T23:06:24.581Z,102522.52
2022-10-06T23:08:52.105Z,102521.30
2022-10-06T23:11:21.530Z,102518.17
2022-10-06T23:13:50.332Z,102513.22
2022-10-06T23:16:19.306Z,102506.92
2022-10-06T23:18:47.554Z,102508.09
2022-10-06T23:21:27.135Z,102502.15
2022-10-06T23:23:58.564Z,102504.24
2022-10-06T23:26:26.022Z,102502.59
2022-10-06T23:28:59.238Z,102495.39
2022-10-06T23:31:28.497Z,102497.61
2022-10-06T23:33:55.635Z,102505.31
2022-10-06T23:36:22.615Z,102512.36
2022-10-06T23:38:50.176Z,102514.21
2022-10-06T23:41:17.376Z,102512.59
2022-10-06T23:43:44.180Z,102511.83
2022-10-06T23:46:11.983Z,102507.17
2022-10-06T23:48:39.302Z,102508.67
2022-10-06T23:51:13.522Z,102511.04
2022-10-06T23:53:40.832Z,102511.31
2022-10-06T23:56:08.787Z,102507.34
2022-10-06T23:58:36.156Z,102507.19
